createdAt,value
2022-10-13T00:00:19.106Z,10.68
2022-10-13T00:02:39.601Z,11.15
2022-10-13T00:04:59.822Z,10.52
2022-10-13T00:07:20.619Z,9.55
2022-10-13T00:09:40.895Z,9.27
2022-10-13T00:12:01.457Z,8.70
2022-10-13T00:14:22.183Z,8.68
2022-10-13T00:16:42.524Z,8.75
2022-10-13T00:19:03.170Z,8.82
2022-10-13T00:21:26.268Z,9.65
2022-10-13T00:23:47.191Z,10.95
2022-10-13T00:26:10.452Z,9.90
2022-10-13T00:28:31.285Z,10.02
2022-10-13T00:30:52.027Z,10.98
2022-10-13T00:33:13.866Z,10.52
2022-10-13T00:35:35.012Z,11.45
2022-10-13T00:37:55.472Z,9.70
2022-10-13T00:40:16.109Z,10.20
2022-10-13T00:42:36.349Z,10.10
2022-10-13T00:45:22.991Z,11.32
2022-10-13T00:47:47.363Z,9.75
2022-10-13T00:50:12.157Z,11.20
2022-10-13T00:52:34.845Z,10.57
2022-10-13T00:54:56.633Z,9.70
2022-10-13T00:57:19.309Z,11.23
2022-10-13T00:59:40.895Z,10.30
2022-10-13T01:02:02.773Z,9.32
2022-10-13T01:04:27.276Z,11.75
2022-10-13T01:06:48.201Z,9.98
2022-10-13T01:09:08.479Z,9.95
2022-10-13T01:11:44.254Z,11.05
2022-10-13T01:14:26.438Z,10.13
2022-10-13T01:17:09.385Z,10.32
2022-10-13T01:19:59.736Z,11.05
2022-10-13T01:22:48.208Z,10.70
2022-10-13T01:25:27.622Z,10.65
2022-10-13T01:28:08.354Z,11.25
2022-10-13T01:34:23.494Z,11.70
2022-10-13T01:36:58.563Z,9.80
2022-10-13T01:39:24.117Z,10.15
2022-10-13T01:41:52.684Z,10.52
2022-10-13T01:44:29.215Z,10.65
2022-10-13T01:46:51.892Z,11.25
2022-10-13T01:49:16.557Z,11.05
2022-10-13T01:51:38.358Z,10.27
2022-10-13T01:53:59.009Z,10.73
2022-10-13T01:56:19.639Z,10.25
2022-10-13T01:58:40.153Z,11.23
2022-10-13T02:01:22.319Z,9.73
2022-10-13T02:04:12.584Z,9.98
2022-10-13T02:06:47.869Z,10.05
2022-10-13T02:09:26.785Z,10.43
2022-10-13T02:11:54.422Z,10.00
2022-10-13T02:14:43.058Z,9.30
2022-10-13T02:17:05.881Z,9.20
2022-10-13T02:19:27.703Z,10.05
2022-10-13T02:21:48.488Z,10.48
2022-10-13T02:24:09.514Z,12.02
2022-10-13T02:26:32.407Z,10.38
2022-10-13T02:28:53.052Z,10.20
2022-10-13T02:31:13.413Z,10.73
2022-10-13T02:33:34.296Z,11.00
2022-10-13T02:35:54.818Z,11.63
2022-10-13T02:38:15.108Z,11.52
2022-10-13T02:40:35.617Z,10.75
2022-10-13T02:42:56.980Z,11.45
2022-10-13T02:45:36.002Z,11.88
2022-10-13T02:47:57.998Z,12.77
2022-10-13T02:50:18.928Z,10.85
2022-10-13T02:52:39.366Z,11.68
2022-10-13T02:54:59.681Z,11.60
2022-10-13T02:57:20.428Z,11.02
2022-10-13T02:59:40.852Z,11.65
2022-10-13T03:02:02.731Z,12.20
2022-10-13T03:04:23.072Z,11.27
2022-10-13T03:06:43.410Z,10.85
2022-10-13T03:09:07.324Z,11.13
2022-10-13T03:11:27.987Z,10.50
2022-10-13T03:13:48.627Z,9.70
2022-10-13T03:16:09.420Z,10.63
2022-10-13T03:18:30.235Z,10.95
2022-10-13T03:21:05.174Z,10.10
2022-10-13T03:23:26.351Z,9.80
2022-10-13T03:25:46.734Z,9.68
2022-10-13T03:28:07.319Z,9.75
2022-10-13T03:30:27.708Z,8.88
2022-10-13T03:32:48.258Z,9.02
2022-10-13T03:35:09.090Z,8.60
2022-10-13T03:37:30.859Z,9.57
2022-10-13T03:39:51.330Z,10.07
2022-10-13T03:42:11.656Z,10.30
2022-10-13T03:44:32.476Z,10.13
2022-10-13T03:46:52.778Z,10.70
2022-10-13T03:49:13.520Z,11.93
2022-10-13T03:51:34.269Z,11.88
2022-10-13T03:53:54.931Z,9.75
2022-10-13T03:56:18.000Z,10.25
2022-10-13T03:58:38.563Z,10.30
2022-10-13T04:01:04.646Z,12.75
2022-10-13T04:03:25.045Z,10.45
2022-10-13T04:05:46.228Z,10.95
2022-10-13T04:08:07.232Z,9.88
2022-10-13T04:10:27.877Z,10.15
2022-10-13T04:12:49.381Z,9.77
2022-10-13T04:15:10.612Z,10.13
2022-10-13T04:17:31.326Z,10.32
2022-10-13T04:19:51.720Z,10.63
2022-10-13T04:22:12.036Z,9.88
2022-10-13T04:24:32.802Z,10.27
2022-10-13T04:26:53.593Z,10.65
2022-10-13T04:29:13.932Z,10.02
2022-10-13T04:31:35.483Z,9.32
2022-10-13T04:33:56.149Z,11.05
2022-10-13T04:36:17.865Z,10.52
2022-10-13T04:38:39.003Z,9.43
2022-10-13T04:41:01.841Z,9.23
2022-10-13T04:45:42.677Z,10.30
2022-10-13T04:48:03.310Z,11.10
2022-10-13T04:50:23.772Z,10.15
2022-10-13T04:52:44.327Z,10.68
2022-10-13T04:55:05.345Z,10.32
2022-10-13T04:57:25.942Z,9.80
2022-10-13T04:59:46.687Z,10.70
2022-10-13T05:02:07.127Z,10.30
2022-10-13T05:04:27.421Z,10.40
2022-10-13T05:07:16.094Z,11.68
2022-10-13T05:09:29.236Z,11.07
2022-10-13T05:11:49.604Z,10.90
2022-10-13T05:14:10.571Z,10.75
2022-10-13T05:16:31.299Z,11.23
2022-10-13T05:18:54.081Z,11.00
2022-10-13T05:21:20.362Z,11.52
2022-10-13T05:23:42.021Z,11.50
2022-10-13T05:26:05.132Z,11.20
2022-10-13T05:30:46.255Z,9.00
2022-10-13T05:33:06.916Z,8.52
2022-10-13T05:35:28.385Z,9.23
2022-10-13T05:37:48.728Z,8.95
2022-10-13T05:40:09.876Z,7.68
2022-10-13T05:42:30.386Z,7.95
2022-10-13T05:44:51.537Z,7.88
2022-10-13T05:47:12.286Z,8.02
2022-10-13T05:49:32.742Z,9.35
2022-10-13T05:52:01.651Z,8.45
2022-10-13T05:54:30.181Z,8.30
2022-10-13T05:57:01.860Z,7.47
2022-10-13T05:59:27.171Z,9.68
2022-10-13T06:01:49.014Z,9.32
2022-10-13T06:04:18.047Z,9.02
2022-10-13T06:06:40.064Z,10.52
2022-10-13T06:09:01.656Z,10.93
2022-10-13T06:11:22.306Z,12.50
2022-10-13T06:13:42.815Z,11.52
2022-10-13T06:16:04.020Z,13.57
2022-10-13T06:18:24.709Z,11.75
2022-10-13T06:20:45.449Z,13.07
2022-10-13T06:23:06.950Z,12.50
2022-10-13T06:25:29.119Z,12.90
2022-10-13T06:27:49.637Z,12.40
2022-10-13T06:30:10.484Z,13.95
2022-10-13T06:32:31.404Z,12.82
2022-10-13T06:34:52.039Z,11.60
2022-10-13T06:37:12.936Z,10.95
2022-10-13T06:39:33.333Z,10.25
2022-10-13T06:41:55.311Z,8.98
2022-10-13T06:44:15.780Z,10.63
2022-10-13T06:46:36.171Z,10.73
2022-10-13T06:48:56.820Z,8.15
2022-10-13T06:51:17.162Z,7.03
2022-10-13T06:53:37.859Z,8.55
2022-10-13T06:55:59.909Z,8.32
2022-10-13T06:58:20.037Z,7.47
2022-10-13T07:00:41.360Z,8.18
2022-10-13T07:03:02.028Z,8.07
2022-10-13T07:05:22.617Z,7.78
2022-10-13T07:07:43.354Z,7.55
2022-10-13T07:10:04.139Z,7.28
2022-10-13T07:12:24.834Z,7.38
2022-10-13T07:14:48.118Z,7.63
2022-10-13T07:17:08.635Z,7.93
2022-10-13T07:19:29.199Z,8.27
2022-10-13T07:21:49.855Z,8.07
2022-10-13T07:24:11.894Z,6.85
2022-10-13T07:26:33.953Z,7.18
2022-10-13T07:28:54.787Z,6.47
2022-10-13T07:31:18.129Z,6.53
2022-10-13T07:33:39.052Z,5.78
2022-10-13T07:35:59.843Z,6.28
2022-10-13T07:38:20.646Z,7.00
2022-10-13T07:40:41.200Z,7.25
2022-10-13T07:43:02.884Z,6.93
2022-10-13T07:45:24.033Z,7.45
2022-10-13T07:47:44.636Z,7.00
2022-10-13T07:50:05.722Z,7.43
2022-10-13T07:52:26.430Z,7.78
2022-10-13T07:54:47.129Z,8.13
2022-10-13T07:57:07.907Z,6.95
2022-10-13T07:59:28.299Z,8.15
2022-10-13T08:01:49.255Z,6.93
2022-10-13T08:04:10.282Z,7.07
2022-10-13T08:06:30.742Z,7.60
2022-10-13T08:59:46.850Z,8.23
2022-10-13T09:02:46.327Z,7.97
2022-10-13T09:05:14.487Z,5.70
2022-10-13T09:07:38.455Z,5.65
2022-10-13T09:10:00.968Z,5.45
2022-10-13T09:12:25.200Z,4.97
2022-10-13T09:15:22.440Z,5.28
2022-10-13T09:18:13.813Z,4.85
2022-10-13T09:29:26.402Z,6.73
2022-10-13T09:31:47.785Z,5.22
2022-10-13T09:34:20.370Z,5.97
2022-10-13T09:59:27.850Z,6.53
2022-10-13T10:02:35.860Z,6.65
2022-10-13T10:05:11.338Z,6.60
2022-10-13T10:08:11.353Z,5.50
2022-10-13T12:19:31.488Z,2.42
2022-10-13T13:02:02.151Z,3.15
2022-10-13T13:24:57.659Z,3.10
2022-10-13T13:27:17.998Z,3.08
2022-10-13T13:29:39.905Z,2.70
2022-10-13T13:32:01.403Z,1.92
2022-10-13T13:34:26.115Z,2.45
2022-10-13T13:37:24.158Z,4.18
2022-10-13T13:39:46.520Z,2.30
2022-10-13T13:42:40.144Z,2.17
2022-10-13T13:45:01.591Z,1.90
2022-10-13T13:47:24.456Z,2.72
2022-10-13T13:52:06.173Z,3.92
2022-10-13T13:54:26.721Z,1.88
2022-10-13T13:56:47.420Z,2.58
2022-10-13T13:59:08.273Z,1.60
2022-10-13T14:01:29.029Z,2.22
2022-10-13T14:03:50.720Z,1.63
2022-10-13T14:06:22.991Z,1.93
2022-10-13T14:08:45.415Z,2.13
2022-10-13T14:11:08.356Z,1.40
2022-10-13T14:16:03.824Z,1.42
2022-10-13T14:18:24.834Z,2.00
2022-10-13T14:21:09.842Z,1.75
2022-10-13T14:23:30.036Z,2.00
2022-10-13T14:25:50.449Z,1.90
2022-10-13T14:28:14.581Z,2.67
2022-10-13T14:30:41.531Z,1.67
2022-10-13T14:33:04.956Z,2.75
2022-10-13T14:35:27.809Z,1.80
2022-10-13T14:37:48.431Z,2.17
2022-10-13T14:40:40.255Z,1.50
2022-10-13T14:43:38.467Z,1.92
2022-10-13T14:46:04.869Z,1.90
2022-10-13T14:48:25.252Z,2.00
2022-10-13T14:50:45.867Z,1.98
2022-10-13T14:53:44.043Z,2.10
2022-10-13T14:56:17.691Z,2.33
2022-10-13T15:00:56.913Z,2.60
2022-10-13T15:03:17.264Z,2.15
2022-10-13T15:05:38.559Z,2.38
2022-10-13T15:07:58.958Z,2.33
2022-10-13T15:10:19.457Z,2.45
2022-10-13T15:12:40.067Z,1.85
2022-10-13T15:15:00.792Z,2.80
2022-10-13T15:17:21.471Z,2.47
2022-10-13T15:19:42.433Z,2.60
2022-10-13T15:22:03.575Z,3.58
2022-10-13T15:24:29.889Z,2.50
2022-10-13T15:27:21.252Z,2.75
2022-10-13T15:29:46.787Z,2.75
2022-10-13T15:32:20.935Z,3.00
2022-10-13T15:34:47.898Z,3.33
2022-10-13T15:37:38.644Z,2.92
2022-10-13T15:40:04.712Z,4.90
2022-10-13T15:42:59.062Z,3.22
2022-10-13T15:45:21.637Z,2.92
2022-10-13T15:47:48.086Z,2.70
2022-10-13T15:50:14.550Z,3.25
2022-10-13T15:53:12.412Z,2.72
2022-10-13T16:16:48.016Z,5.80
2022-10-13T16:19:08.623Z,5.35
2022-10-13T16:21:29.193Z,5.03
2022-10-13T16:23:49.903Z,3.47
2022-10-13T16:26:10.833Z,4.47
2022-10-13T16:28:31.647Z,4.93
2022-10-13T16:30:52.469Z,3.85
2022-10-13T16:33:12.874Z,4.22
2022-10-13T16:35:34.419Z,5.18
2022-10-13T16:37:54.984Z,5.43
2022-10-13T16:40:15.839Z,4.35
2022-10-13T16:42:36.575Z,4.85
2022-10-13T16:44:57.709Z,4.72
2022-10-13T16:47:18.752Z,7.65
2022-10-13T16:49:39.603Z,7.75
2022-10-13T16:52:00.785Z,15.10
2022-10-13T16:54:22.679Z,11.63
2022-10-13T16:56:43.683Z,8.02
2022-10-13T16:59:06.453Z,8.05
2022-10-13T17:01:27.761Z,7.43
2022-10-13T17:03:50.420Z,7.82
2022-10-13T17:06:11.821Z,7.53
2022-10-13T17:08:32.725Z,7.15
2022-10-13T17:10:58.106Z,6.45
2022-10-13T17:13:18.825Z,6.25
2022-10-13T17:15:39.345Z,6.47
2022-10-13T17:18:04.283Z,6.53
2022-10-13T17:20:24.920Z,6.18
2022-10-13T17:22:45.547Z,5.28
2022-10-13T17:25:07.415Z,6.20
2022-10-13T17:27:27.979Z,5.97
2022-10-13T17:29:48.714Z,8.25
2022-10-13T17:32:09.842Z,8.98
2022-10-13T17:34:30.183Z,8.05
2022-10-13T17:36:50.754Z,8.85
2022-10-13T17:39:12.119Z,7.95
2022-10-13T17:41:32.979Z,7.38
2022-10-13T17:43:53.728Z,7.47
2022-10-13T17:49:00.648Z,7.28
2022-10-13T17:51:23.674Z,6.80
2022-10-13T17:53:44.686Z,6.40
2022-10-13T17:56:07.857Z,7.13
2022-10-13T17:58:28.948Z,6.38
2022-10-13T18:01:11.948Z,7.80
2022-10-13T18:03:31.327Z,7.88
2022-10-13T18:05:53.366Z,5.45
2022-10-13T18:08:13.974Z,6.47
2022-10-13T18:11:03.505Z,6.35
2022-10-13T18:13:16.458Z,6.20
2022-10-13T18:15:38.313Z,7.10
2022-10-13T18:17:58.966Z,6.60
2022-10-13T18:20:19.622Z,9.60
2022-10-13T18:22:40.044Z,9.60
2022-10-13T18:25:00.729Z,18.67
2022-10-13T18:27:21.596Z,21.67
2022-10-13T18:29:43.142Z,14.20
2022-10-13T18:32:03.957Z,10.90
2022-10-13T18:34:24.766Z,9.63
2022-10-13T18:36:50.582Z,8.95
2022-10-13T18:39:14.552Z,9.48
2022-10-13T18:41:36.558Z,9.43
2022-10-13T18:43:57.479Z,9.52
2022-10-13T18:46:18.889Z,9.05
2022-10-13T18:48:40.632Z,9.25
2022-10-13T18:51:09.398Z,8.70
2022-10-13T18:53:29.810Z,13.35
2022-10-13T18:55:50.372Z,11.15
2022-10-13T18:58:11.906Z,11.00
2022-10-13T19:00:32.595Z,12.35
2022-10-13T19:02:53.500Z,12.15
2022-10-13T19:05:14.365Z,11.40
2022-10-13T19:07:38.805Z,11.60
2022-10-13T19:09:59.656Z,10.05
2022-10-13T19:12:20.081Z,12.40
2022-10-13T19:14:40.645Z,11.50
2022-10-13T19:17:02.327Z,9.20
2022-10-13T19:19:23.088Z,11.43
2022-10-13T19:21:43.583Z,10.75
2022-10-13T19:24:04.339Z,13.02
2022-10-13T19:26:28.428Z,11.80
2022-10-13T19:28:48.993Z,13.77
2022-10-13T19:31:10.409Z,12.80
2022-10-13T19:33:31.111Z,13.68
2022-10-13T19:35:51.645Z,10.10
2022-10-13T19:38:13.040Z,10.23
2022-10-13T19:40:33.885Z,8.55
2022-10-13T19:42:55.446Z,12.02
2022-10-13T19:45:16.115Z,9.68
2022-10-13T19:47:36.681Z,9.68
2022-10-13T19:49:57.247Z,9.98
2022-10-13T19:52:17.965Z,9.43
2022-10-13T19:54:38.575Z,8.95
2022-10-13T19:56:58.934Z,10.40
2022-10-13T19:59:20.057Z,11.00
2022-10-13T20:01:41.228Z,11.52
2022-10-13T20:04:02.014Z,13.00
2022-10-13T20:06:23.330Z,11.65
2022-10-13T20:08:45.132Z,11.35
2022-10-13T20:11:10.771Z,8.33
2022-10-13T20:13:31.049Z,10.88
2022-10-13T20:15:51.372Z,15.05
2022-10-13T20:18:13.350Z,12.75
2022-10-13T20:20:34.918Z,12.77
2022-10-13T20:22:55.582Z,9.35
2022-10-13T20:25:19.911Z,11.60
2022-10-13T20:27:40.482Z,11.70
2022-10-13T20:30:01.419Z,10.80
2022-10-13T20:32:21.909Z,10.20
2022-10-13T20:34:42.842Z,9.98
2022-10-13T20:37:04.504Z,9.75
2022-10-13T20:39:24.813Z,8.68
2022-10-13T20:41:45.943Z,9.07
2022-10-13T20:44:06.497Z,9.00
2022-10-13T20:46:27.315Z,9.38
2022-10-13T20:49:09.811Z,9.18
2022-10-13T20:51:29.391Z,9.45
2022-10-13T20:53:50.507Z,10.13
2022-10-13T20:56:15.584Z,10.38
2022-10-13T20:58:37.299Z,10.90
2022-10-13T21:00:58.429Z,12.38
2022-10-13T21:03:20.321Z,13.23
2022-10-13T21:05:40.678Z,11.75
2022-10-13T21:08:01.510Z,11.88
2022-10-13T21:10:21.964Z,10.35
2022-10-13T21:12:42.538Z,11.15
2022-10-13T21:15:03.357Z,11.07
2022-10-13T21:17:23.919Z,11.13
2022-10-13T21:19:44.809Z,10.73
2022-10-13T21:22:05.414Z,10.32
2022-10-13T21:24:26.013Z,9.85
2022-10-13T21:26:46.482Z,9.35
2022-10-13T21:29:07.060Z,9.25
2022-10-13T21:31:28.277Z,10.55
2022-10-13T21:33:49.742Z,9.77
2022-10-13T21:36:25.514Z,10.32
2022-10-13T21:38:47.308Z,10.30
2022-10-13T21:41:09.694Z,11.82
2022-10-13T21:43:30.449Z,12.00
2022-10-13T21:45:51.019Z,13.30
2022-10-13T21:48:11.495Z,12.50
2022-10-13T21:50:32.102Z,10.35
2022-10-13T21:52:52.455Z,10.70
2022-10-13T21:55:14.190Z,10.18
2022-10-13T21:57:34.637Z,10.45
2022-10-13T21:59:55.376Z,10.75
2022-10-13T22:02:16.158Z,11.15
2022-10-13T22:04:36.441Z,9.57
2022-10-13T22:06:56.886Z,9.40
2022-10-13T22:09:17.603Z,9.57
2022-10-13T22:11:39.661Z,8.73
2022-10-13T22:14:00.394Z,9.80
2022-10-13T22:16:26.769Z,10.43
2022-10-13T22:18:48.168Z,8.20
2022-10-13T22:21:16.157Z,8.95
2022-10-13T22:23:36.820Z,8.13
2022-10-13T22:25:57.328Z,9.55
2022-10-13T22:28:17.610Z,9.05
2022-10-13T22:30:38.536Z,9.10
2022-10-13T22:32:59.006Z,9.75
2022-10-13T22:35:19.733Z,9.90
2022-10-13T22:37:40.361Z,9.45
2022-10-13T22:40:00.997Z,8.95
2022-10-13T22:42:21.667Z,9.25
2022-10-13T22:44:42.269Z,8.48
2022-10-13T22:47:03.142Z,9.38
2022-10-13T22:49:23.667Z,9.52
2022-10-13T22:51:44.186Z,9.88
2022-10-13T22:54:05.634Z,9.32
2022-10-13T22:56:32.285Z,8.50
2022-10-13T22:58:59.931Z,10.40
2022-10-13T23:01:21.897Z,9.50
2022-10-13T23:03:43.197Z,9.73
2022-10-13T23:06:04.769Z,9.60
2022-10-13T23:08:25.607Z,10.02
2022-10-13T23:10:46.159Z,9.43
2022-10-13T23:13:06.842Z,10.18
2022-10-13T23:15:27.521Z,10.77
2022-10-13T23:17:47.783Z,10.13
2022-10-13T23:20:08.922Z,9.73
2022-10-13T23:22:29.378Z,9.52
2022-10-13T23:24:49.891Z,8.98
2022-10-13T23:27:10.449Z,9.38
2022-10-13T23:29:31.008Z,10.30
2022-10-13T23:31:51.663Z,9.45
2022-10-13T23:34:12.367Z,9.80
2022-10-13T23:36:33.254Z,9.35
2022-10-13T23:39:11.914Z,8.73
2022-10-13T23:41:33.068Z,9.50
2022-10-13T23:43:54.386Z,9.07
2022-10-13T23:46:15.063Z,9.55
2022-10-13T23:48:35.231Z,8.70
2022-10-13T23:50:56.526Z,9.27
2022-10-13T23:53:16.777Z,10.15
2022-10-13T23:55:38.847Z,9.48
2022-10-13T23:57:59.016Z,10.55
